createdAt,value
2017-01-03T00:00:07.768Z,5.12
2017-01-03T00:00:48.299Z,5.13
2017-01-03T00:01:28.826Z,5.12
2017-01-03T00:02:09.290Z,5.02
2017-01-03T00:02:49.933Z,5.02
2017-01-03T00:03:30.425Z,4.97
2017-01-03T00:04:10.901Z,4.96
2017-01-03T00:04:51.316Z,4.77
2017-01-03T00:05:31.859Z,4.94
2017-01-03T00:06:12.384Z,4.73
2017-01-03T00:06:52.858Z,4.99
2017-01-03T00:07:33.313Z,4.92
2017-01-03T00:08:13.833Z,4.88
2017-01-03T00:08:54.218Z,4.99
2017-01-03T00:09:34.729Z,4.92
2017-01-03T00:10:15.272Z,4.91
2017-01-03T00:10:55.768Z,5.03
2017-01-03T00:11:36.284Z,4.99
2017-01-03T00:12:16.759Z,5.03
2017-01-03T00:12:57.245Z,5.04
2017-01-03T00:13:37.747Z,5.13
2017-01-03T00:14:18.286Z,5.07
2017-01-03T00:14:58.743Z,5.27
2017-01-03T00:15:39.265Z,5.21
2017-01-03T00:16:19.692Z,5.21
2017-01-03T00:17:00.185Z,5.21
2017-01-03T00:17:40.684Z,5.04
2017-01-03T00:18:21.193Z,5.09
2017-01-03T00:19:01.592Z,5.09
2017-01-03T00:19:42.051Z,5.07
2017-01-03T00:20:22.556Z,5.12
2017-01-03T00:21:03.009Z,5.15
2017-01-03T00:21:43.533Z,5.13
2017-01-03T00:22:24.049Z,5.13
2017-01-03T00:23:04.576Z,5.18
2017-01-03T00:23:45.068Z,5.22
2017-01-03T00:24:25.575Z,4.99
2017-01-03T00:25:06.019Z,5.06
2017-01-03T00:25:46.553Z,5.07
2017-01-03T00:26:26.995Z,5.18
2017-01-03T00:27:07.477Z,5.17
2017-01-03T00:27:47.942Z,5.15
2017-01-03T00:28:28.512Z,5.13
2017-01-03T00:29:08.920Z,5.07
2017-01-03T00:29:49.526Z,5.24
2017-01-03T00:30:30.008Z,5.17
2017-01-03T00:31:10.492Z,5.33
2017-01-03T00:31:50.998Z,5.33
2017-01-03T00:32:31.453Z,5.18
2017-01-03T00:33:11.896Z,5.18
2017-01-03T00:35:00.856Z,5
2017-01-03T00:35:41.380Z,4.89
2017-01-03T00:36:21.892Z,5.04
2017-01-03T00:37:02.376Z,4.92
2017-01-03T00:37:42.859Z,4.99
2017-01-03T00:38:23.336Z,5.02
2017-01-03T00:39:03.829Z,5.12
2017-01-03T00:39:44.283Z,4.96
2017-01-03T00:40:24.791Z,4.99
2017-01-03T00:41:05.262Z,4.82
2017-01-03T00:41:45.742Z,4.89
2017-01-03T00:42:26.176Z,5.03
2017-01-03T00:43:06.661Z,5
2017-01-03T00:43:47.266Z,5.06
2017-01-03T00:44:27.740Z,5.03
2017-01-03T00:45:08.341Z,5
2017-01-03T00:45:48.820Z,5.07
2017-01-03T00:46:29.281Z,5.15
2017-01-03T00:47:09.841Z,5.24
2017-01-03T00:47:50.361Z,5.21
2017-01-03T00:48:30.852Z,5.2
2017-01-03T00:49:11.344Z,5.25
2017-01-03T00:49:51.864Z,5.09
2017-01-03T00:50:38.655Z,5.06
2017-01-03T00:51:19.259Z,5.1
2017-01-03T00:51:59.773Z,5.04
2017-01-03T00:52:40.218Z,5.12
2017-01-03T00:53:20.720Z,5.27
2017-01-03T00:54:01.151Z,5.07
2017-01-03T00:54:41.723Z,5.03
2017-01-03T00:55:22.183Z,5.1
2017-01-03T00:56:02.653Z,5.22
2017-01-03T00:56:43.190Z,5.1
2017-01-03T00:57:23.591Z,5.21
2017-01-03T00:58:04.220Z,5.24
2017-01-03T00:58:44.701Z,5.2
2017-01-03T00:59:25.140Z,5.36
2017-01-03T01:00:05.658Z,5.3
2017-01-03T01:00:46.117Z,5.27
2017-01-03T01:01:26.612Z,5.03
2017-01-03T01:02:07.089Z,4.97
2017-01-03T01:02:47.681Z,4.96
2017-01-03T01:03:28.091Z,4.94
2017-01-03T01:04:08.592Z,4.89
2017-01-03T01:04:49.100Z,5
2017-01-03T01:05:29.674Z,4.86
2017-01-03T01:06:10.156Z,4.66
2017-01-03T01:06:50.659Z,4.77
2017-01-03T01:07:31.157Z,4.75
2017-01-03T01:08:11.589Z,4.89
2017-01-03T01:08:52.155Z,4.84
2017-01-03T01:09:32.577Z,4.96
2017-01-03T01:10:13.041Z,4.94
2017-01-03T01:10:53.563Z,4.85
2017-01-03T01:11:33.996Z,4.66
2017-01-03T01:12:14.443Z,4.63
2017-01-03T01:12:54.931Z,4.66
2017-01-03T01:13:35.471Z,4.63
2017-01-03T01:14:16.036Z,4.67
2017-01-03T01:14:56.477Z,4.67
2017-01-03T01:15:36.956Z,4.62
2017-01-03T01:16:17.462Z,4.66
2017-01-03T01:16:58.030Z,4.72
2017-01-03T01:17:38.531Z,4.62
2017-01-03T01:18:18.954Z,4.58
2017-01-03T01:18:59.416Z,4.48
2017-01-03T01:19:39.958Z,4.63
2017-01-03T01:20:20.424Z,4.59
2017-01-03T01:21:00.849Z,4.69
2017-01-03T01:21:41.395Z,4.52
2017-01-03T01:22:21.828Z,4.59
2017-01-03T01:23:02.358Z,4.63
2017-01-03T01:23:42.816Z,4.69
2017-01-03T01:24:23.297Z,4.54
2017-01-03T01:25:03.833Z,4.58
2017-01-03T01:25:44.365Z,4.65
2017-01-03T01:26:24.801Z,4.62
2017-01-03T01:27:05.300Z,4.66
2017-01-03T01:27:45.809Z,4.63
2017-01-03T01:28:26.265Z,4.62
2017-01-03T01:29:06.775Z,4.62
2017-01-03T01:29:47.252Z,4.48
2017-01-03T01:30:27.747Z,4.59
2017-01-03T01:31:08.233Z,4.54
2017-01-03T01:31:48.721Z,4.62
2017-01-03T01:32:29.243Z,4.59
2017-01-03T01:33:09.723Z,4.54
2017-01-03T01:33:50.274Z,4.62
2017-01-03T01:34:30.753Z,4.54
2017-01-03T01:35:11.247Z,4.42
2017-01-03T01:35:51.744Z,4.41
2017-01-03T01:36:32.238Z,4.48
2017-01-03T01:37:12.735Z,4.52
2017-01-03T01:37:53.196Z,4.51
2017-01-03T01:38:33.692Z,4.55
2017-01-03T01:39:14.186Z,4.59
2017-01-03T01:39:54.714Z,4.62
2017-01-03T01:40:35.167Z,4.65
2017-01-03T01:41:15.650Z,4.58
2017-01-03T01:41:56.076Z,4.48
2017-01-03T01:42:36.632Z,4.59
2017-01-03T01:43:17.063Z,4.66
2017-01-03T01:43:57.530Z,4.62
2017-01-03T01:44:38.029Z,4.75
2017-01-03T01:45:18.522Z,4.77
2017-01-03T01:45:59.024Z,4.63
2017-01-03T01:46:39.547Z,4.54
2017-01-03T01:47:20.034Z,4.59
2017-01-03T01:48:00.535Z,4.51
2017-01-03T01:48:40.970Z,4.62
2017-01-03T01:49:21.472Z,4.6
2017-01-03T01:50:01.981Z,4.69
2017-01-03T01:50:42.429Z,4.72
2017-01-03T01:51:22.957Z,4.73
2017-01-03T01:52:03.367Z,4.66
2017-01-03T01:52:43.856Z,4.7
2017-01-03T01:53:24.355Z,4.78
2017-01-03T01:54:04.894Z,4.6
2017-01-03T01:54:45.354Z,4.55
2017-01-03T01:55:25.843Z,4.73
2017-01-03T01:56:06.344Z,4.62
2017-01-03T01:56:46.843Z,4.55
2017-01-03T01:57:27.310Z,4.73
2017-01-03T01:58:07.845Z,4.65
2017-01-03T01:58:48.334Z,4.59
2017-01-03T01:59:28.856Z,4.75
2017-01-03T02:00:09.361Z,4.72
2017-01-03T02:00:49.833Z,4.67
2017-01-03T02:01:30.371Z,4.62
2017-01-03T02:02:10.827Z,4.65
2017-01-03T02:02:51.292Z,4.62
2017-01-03T02:03:31.776Z,4.58
2017-01-03T02:04:12.273Z,4.51
2017-01-03T02:04:52.797Z,4.54
2017-01-03T02:05:33.268Z,4.55
2017-01-03T02:06:13.727Z,4.51
2017-01-03T02:06:54.266Z,4.63
2017-01-03T02:07:34.724Z,4.58
2017-01-03T02:08:15.224Z,4.45
2017-01-03T02:08:55.709Z,4.58
2017-01-03T02:09:36.193Z,4.65
2017-01-03T02:10:16.679Z,4.66
2017-01-03T02:10:57.194Z,4.65
2017-01-03T02:11:37.680Z,4.59
2017-01-03T02:12:18.219Z,4.58
2017-01-03T02:12:58.647Z,4.67
2017-01-03T02:13:39.147Z,4.8
2017-01-03T02:14:19.685Z,4.73
2017-01-03T02:15:00.132Z,4.59
2017-01-03T02:15:40.627Z,4.65
2017-01-03T02:16:21.232Z,4.6
2017-01-03T02:17:01.678Z,4.67
2017-01-03T02:17:42.220Z,4.63
2017-01-03T02:18:22.682Z,4.6
2017-01-03T02:19:03.182Z,4.51
2017-01-03T02:19:43.652Z,4.55
2017-01-03T02:20:24.133Z,4.59
2017-01-03T02:21:04.622Z,4.59
2017-01-03T02:21:45.109Z,4.66
2017-01-03T02:22:25.624Z,4.63
2017-01-03T02:23:06.106Z,4.51
2017-01-03T02:23:46.658Z,4.54
2017-01-03T02:24:27.173Z,4.47
2017-01-03T02:25:07.598Z,4.51
2017-01-03T02:25:48.145Z,4.58
2017-01-03T02:26:28.604Z,4.6
2017-01-03T02:27:09.100Z,4.58
2017-01-03T02:27:49.620Z,4.27
2017-01-03T02:28:30.566Z,4.45
2017-01-03T02:29:10.587Z,4.51
2017-01-03T02:29:51.046Z,4.59
2017-01-03T02:30:33.341Z,4.59
2017-01-03T02:31:13.799Z,4.72
2017-01-03T02:31:54.304Z,4.73
2017-01-03T02:32:34.771Z,4.73
2017-01-03T02:33:15.278Z,4.89
2017-01-03T02:33:55.739Z,4.88
2017-01-03T02:34:36.233Z,4.92
2017-01-03T02:35:16.730Z,5
2017-01-03T02:35:57.274Z,4.97
2017-01-03T02:36:37.742Z,5.02
2017-01-03T02:37:18.286Z,4.99
2017-01-03T02:37:58.793Z,4.89
2017-01-03T02:38:39.239Z,4.88
2017-01-03T02:39:19.730Z,4.85
2017-01-03T02:40:00.228Z,4.78
2017-01-03T02:40:40.730Z,4.82
2017-01-03T02:41:21.228Z,4.91
2017-01-03T02:42:01.685Z,5.02
2017-01-03T02:42:42.391Z,4.96
2017-01-03T02:43:22.899Z,4.88
2017-01-03T02:44:03.405Z,4.91
2017-01-03T02:44:43.864Z,4.89
2017-01-03T02:45:24.305Z,4.99
2017-01-03T02:46:04.824Z,4.97
2017-01-03T02:46:45.282Z,5.02
2017-01-03T02:47:25.762Z,4.99
2017-01-03T02:48:06.285Z,4.75
2017-01-03T02:48:46.733Z,4.82
2017-01-03T02:49:27.260Z,4.85
2017-01-03T02:50:07.743Z,4.75
2017-01-03T02:50:48.250Z,4.78
2017-01-03T02:51:28.677Z,4.86
2017-01-03T02:52:09.170Z,4.96
2017-01-03T02:52:49.653Z,4.97
2017-01-03T02:53:30.165Z,4.96
2017-01-03T02:54:10.623Z,4.94
2017-01-03T02:54:51.147Z,4.89
2017-01-03T02:55:31.602Z,4.94
2017-01-03T02:56:12.082Z,5.02
2017-01-03T02:56:52.564Z,4.96
2017-01-03T02:57:33.116Z,5.1
2017-01-03T02:58:13.607Z,5.03
2017-01-03T02:58:55.000Z,4.99
2017-01-03T02:59:35.472Z,5.02
2017-01-03T03:00:15.979Z,4.78
2017-01-03T03:00:56.548Z,5.02
2017-01-03T03:01:36.913Z,4.97
2017-01-03T03:02:17.399Z,4.94
2017-01-03T03:02:57.932Z,5.03
2017-01-03T03:03:38.451Z,5.04
2017-01-03T03:04:19.019Z,4.99
2017-01-03T03:04:59.524Z,5.02
2017-01-03T03:05:39.995Z,5.13
2017-01-03T03:06:20.450Z,4.96
2017-01-03T03:07:00.953Z,5.1
2017-01-03T03:07:41.423Z,5.13
2017-01-03T03:08:21.911Z,5.12
2017-01-03T03:09:02.407Z,5.04
2017-01-03T03:09:42.880Z,5.04
2017-01-03T03:10:23.430Z,5
2017-01-03T03:11:03.899Z,4.94
2017-01-03T03:11:44.350Z,5.04
2017-01-03T03:12:24.916Z,5.09
2017-01-03T03:13:05.409Z,5
2017-01-03T03:13:45.937Z,4.97
2017-01-03T03:14:26.398Z,5.04
2017-01-03T03:15:06.891Z,4.77
2017-01-03T03:15:47.418Z,4.88
2017-01-03T03:16:27.853Z,4.73
2017-01-03T03:17:08.319Z,4.88
2017-01-03T03:17:48.860Z,5.07
2017-01-03T03:18:29.384Z,5.17
2017-01-03T03:19:09.860Z,5.06
2017-01-03T03:19:50.348Z,4.92
2017-01-03T03:20:30.829Z,4.82
2017-01-03T03:21:11.325Z,5.07
2017-01-03T03:21:51.810Z,4.96
2017-01-03T03:22:32.294Z,4.96
2017-01-03T03:23:12.809Z,4.96
2017-01-03T03:23:53.283Z,4.99
2017-01-03T03:24:33.758Z,4.99
2017-01-03T03:25:14.449Z,4.88
2017-01-03T03:25:54.907Z,5.02
2017-01-03T03:26:35.405Z,5
2017-01-03T03:27:15.901Z,5.03
2017-01-03T03:27:56.417Z,4.89
2017-01-03T03:28:36.904Z,4.86
2017-01-03T03:29:17.469Z,4.8
2017-01-03T03:29:57.924Z,4.78
2017-01-03T03:30:38.404Z,4.73
2017-01-03T03:31:18.879Z,4.73
2017-01-03T03:31:59.384Z,4.67
2017-01-03T03:32:39.893Z,4.75
2017-01-03T03:33:20.386Z,4.8
2017-01-03T03:34:00.842Z,4.77
2017-01-03T03:34:41.319Z,4.77
2017-01-03T03:35:21.789Z,4.86
2017-01-03T03:36:02.362Z,4.84
2017-01-03T03:36:42.831Z,4.73
2017-01-03T03:37:23.319Z,4.89
2017-01-03T03:38:03.829Z,4.65
2017-01-03T03:38:44.297Z,4.65
2017-01-03T03:39:24.874Z,4.66
2017-01-03T03:40:05.316Z,4.72
2017-01-03T03:40:45.808Z,4.82
2017-01-03T03:41:26.255Z,4.72
2017-01-03T03:42:06.753Z,4.7
2017-01-03T03:42:47.298Z,4.8
2017-01-03T03:43:27.837Z,4.75
2017-01-03T03:44:08.366Z,4.85
2017-01-03T03:44:48.808Z,4.96
2017-01-03T03:45:29.285Z,4.94
2017-01-03T03:46:09.836Z,4.85
2017-01-03T03:46:50.308Z,4.89
2017-01-03T03:47:30.797Z,4.89
2017-01-03T03:48:11.278Z,4.85
2017-01-03T03:48:51.826Z,4.84
2017-01-03T03:49:32.312Z,4.89
2017-01-03T03:50:12.796Z,4.82
2017-01-03T03:50:53.278Z,4.85
2017-01-03T03:51:33.751Z,4.88
2017-01-03T03:52:14.253Z,4.94
2017-01-03T03:52:54.719Z,5.07
2017-01-03T03:53:35.210Z,5.09
2017-01-03T03:54:15.708Z,5.04
2017-01-03T03:54:56.254Z,5.09
2017-01-03T03:55:36.695Z,5.09
2017-01-03T03:56:17.184Z,5.07
2017-01-03T03:56:57.705Z,4.88
2017-01-03T03:57:38.248Z,4.85
2017-01-03T03:58:18.711Z,4.89
2017-01-03T03:58:59.186Z,4.97
2017-01-03T03:59:39.695Z,5
2017-01-03T04:00:20.205Z,4.91
2017-01-03T04:01:00.702Z,4.89
2017-01-03T04:02:48.758Z,4.97
2017-01-03T04:03:29.256Z,4.94
2017-01-03T04:04:09.789Z,4.94
2017-01-03T04:04:50.261Z,4.72
2017-01-03T04:05:30.789Z,4.89
2017-01-03T04:06:11.419Z,4.99
2017-01-03T04:06:51.876Z,4.77
2017-01-03T04:07:32.349Z,4.91
2017-01-03T04:08:12.905Z,4.82
2017-01-03T04:08:53.411Z,4.86
2017-01-03T04:09:33.835Z,4.97
2017-01-03T04:10:14.318Z,4.75
2017-01-03T04:10:54.910Z,4.88
2017-01-03T04:11:35.362Z,4.73
2017-01-03T04:12:15.848Z,4.91
2017-01-03T04:12:56.430Z,5
2017-01-03T04:13:36.963Z,4.88
2017-01-03T04:14:17.414Z,4.75
2017-01-03T04:14:57.923Z,4.91
2017-01-03T04:15:38.392Z,4.88
2017-01-03T04:16:18.843Z,4.85
2017-01-03T04:16:59.400Z,4.8
2017-01-03T04:17:40.053Z,4.72
2017-01-03T04:18:20.529Z,4.89
2017-01-03T04:19:01.074Z,4.99
2017-01-03T04:19:41.566Z,5.02
2017-01-03T04:20:22.069Z,4.99
2017-01-03T04:21:02.511Z,4.97
2017-01-03T04:21:43.050Z,4.86
2017-01-03T04:22:23.478Z,5.03
2017-01-03T04:23:03.961Z,4.86
2017-01-03T04:23:44.509Z,4.78
2017-01-03T04:24:24.914Z,4.73
2017-01-03T04:25:05.472Z,4.84
2017-01-03T04:25:45.928Z,4.89
2017-01-03T04:26:26.446Z,4.91
2017-01-03T04:27:07.160Z,4.78
2017-01-03T04:27:47.583Z,4.65
2017-01-03T04:28:28.075Z,4.65
2017-01-03T04:29:08.559Z,4.77
2017-01-03T04:29:49.048Z,4.73
2017-01-03T04:30:29.590Z,4.8
2017-01-03T04:32:27.690Z,4.82
2017-01-03T04:33:08.229Z,4.73
2017-01-03T04:33:48.682Z,4.82
2017-01-03T04:34:29.201Z,4.96
2017-01-03T04:35:09.751Z,4.89
2017-01-03T04:35:50.227Z,4.73
2017-01-03T04:36:30.834Z,4.77
2017-01-03T04:37:11.293Z,4.8
2017-01-03T04:37:51.822Z,4.88
2017-01-03T04:38:32.300Z,4.8
2017-01-03T04:39:12.743Z,4.78
2017-01-03T04:39:53.262Z,4.89
2017-01-03T04:40:33.769Z,4.99
2017-01-03T04:41:14.211Z,4.99
2017-01-03T04:41:54.718Z,4.86
2017-01-03T04:42:35.218Z,4.92
2017-01-03T04:43:15.732Z,4.91
2017-01-03T04:43:56.249Z,4.92
2017-01-03T04:44:36.731Z,4.78
2017-01-03T04:45:17.194Z,4.73
2017-01-03T04:45:57.677Z,4.84
2017-01-03T04:46:38.280Z,4.78
2017-01-03T04:47:18.684Z,4.89
2017-01-03T04:47:59.183Z,4.86
2017-01-03T04:48:39.701Z,4.8
2017-01-03T04:49:20.154Z,4.8
2017-01-03T04:50:00.643Z,4.82
2017-01-03T04:50:41.183Z,4.59
2017-01-03T04:51:21.693Z,4.66
2017-01-03T04:52:02.132Z,4.77
2017-01-03T04:52:42.657Z,4.86
2017-01-03T04:53:23.141Z,4.84
2017-01-03T04:54:03.637Z,4.86
2017-01-03T04:54:44.142Z,4.92
2017-01-03T04:55:24.659Z,4.8
2017-01-03T04:56:05.164Z,4.73
2017-01-03T04:56:45.646Z,4.92
2017-01-03T04:57:26.123Z,4.75
2017-01-03T04:58:06.613Z,4.99
2017-01-03T04:58:47.208Z,4.77
2017-01-03T04:59:27.641Z,4.72
2017-01-03T05:00:08.107Z,4.91
2017-01-03T05:00:48.737Z,4.99
2017-01-03T05:01:29.218Z,5.03
2017-01-03T05:02:09.710Z,4.96
2017-01-03T05:02:50.197Z,4.86
2017-01-03T05:03:30.696Z,4.91
2017-01-03T05:04:11.191Z,4.73
2017-01-03T05:04:51.642Z,4.84
2017-01-03T05:05:32.105Z,4.91
2017-01-03T05:06:12.582Z,4.96
2017-01-03T05:06:53.064Z,4.89
2017-01-03T05:07:33.558Z,4.88
2017-01-03T05:08:14.027Z,4.75
2017-01-03T05:08:54.582Z,4.91
2017-01-03T05:09:35.060Z,4.78
2017-01-03T05:10:15.497Z,4.86
2017-01-03T05:10:56.009Z,4.89
2017-01-03T05:11:36.448Z,4.92
2017-01-03T05:12:16.992Z,4.92
2017-01-03T05:12:57.464Z,5.04
2017-01-03T05:13:37.963Z,5.02
2017-01-03T05:14:18.401Z,4.99
2017-01-03T05:14:59.050Z,4.89
2017-01-03T05:15:39.544Z,5.02
2017-01-03T05:16:19.993Z,4.96
2017-01-03T05:17:00.476Z,4.99
2017-01-03T05:17:40.959Z,5.03
2017-01-03T05:18:21.412Z,4.92
2017-01-03T05:19:01.921Z,5.06
2017-01-03T05:19:42.469Z,5.03
2017-01-03T05:20:22.895Z,5.06
2017-01-03T05:21:03.391Z,5.02
2017-01-03T05:21:43.862Z,4.91
2017-01-03T05:22:24.374Z,4.59
2017-01-03T05:23:04.883Z,4.7
2017-01-03T05:23:45.332Z,4.72
2017-01-03T05:24:25.808Z,4.84
2017-01-03T05:25:06.294Z,4.67
2017-01-03T05:25:46.795Z,4.78
2017-01-03T05:26:27.307Z,4.8
2017-01-03T05:27:07.763Z,4.66
2017-01-03T05:27:48.222Z,4.52
2017-01-03T05:28:28.719Z,4.47
2017-01-03T05:29:09.356Z,4.36
2017-01-03T05:29:49.845Z,4.47
2017-01-03T05:30:30.296Z,4.54
2017-01-03T05:31:10.729Z,4.62
2017-01-03T05:31:51.217Z,4.6
2017-01-03T05:32:31.717Z,4.6
2017-01-03T05:33:12.175Z,4.73
2017-01-03T05:33:52.679Z,4.82
2017-01-03T05:34:33.127Z,4.86
2017-01-03T05:35:13.648Z,4.73
2017-01-03T05:35:54.135Z,4.69
2017-01-03T05:36:34.696Z,4.6
2017-01-03T05:37:15.109Z,4.65
2017-01-03T05:37:55.738Z,4.66
2017-01-03T05:38:36.171Z,4.77
2017-01-03T05:39:16.651Z,4.44
2017-01-03T05:39:57.158Z,4.58
2017-01-03T05:40:37.682Z,4.63
2017-01-03T05:41:18.165Z,4.69
2017-01-03T05:41:58.639Z,4.7
2017-01-03T05:42:39.106Z,4.75
2017-01-03T05:43:19.626Z,4.82
2017-01-03T05:44:00.082Z,4.82
2017-01-03T05:44:40.638Z,4.7
2017-01-03T05:45:21.139Z,4.73
2017-01-03T05:46:01.610Z,4.62
2017-01-03T05:46:42.068Z,4.67
2017-01-03T05:48:30.069Z,4.97
2017-01-03T05:49:10.535Z,4.88
2017-01-03T05:49:51.094Z,4.86
2017-01-03T05:50:31.567Z,4.77
2017-01-03T05:51:12.012Z,4.84
2017-01-03T05:51:52.523Z,4.75
2017-01-03T05:52:33.008Z,4.92
2017-01-03T05:53:13.532Z,4.75
2017-01-03T05:53:53.962Z,4.82
2017-01-03T05:54:34.475Z,4.72
2017-01-03T05:55:14.967Z,4.59
2017-01-03T05:55:55.427Z,4.63
2017-01-03T05:56:35.992Z,4.58
2017-01-03T05:57:16.417Z,4.6
2017-01-03T05:57:56.933Z,4.59
2017-01-03T05:58:37.466Z,4.63
2017-01-03T05:59:17.932Z,4.45
2017-01-03T05:59:58.407Z,4.58
2017-01-03T06:00:38.901Z,4.69
2017-01-03T06:01:19.365Z,4.77
2017-01-03T06:01:59.940Z,4.69
2017-01-03T06:02:40.463Z,4.6
2017-01-03T06:03:20.958Z,4.63
2017-01-03T06:04:01.464Z,4.7
2017-01-03T06:04:41.962Z,4.78
2017-01-03T06:05:22.506Z,4.78
2017-01-03T06:06:02.955Z,4.72
2017-01-03T06:06:43.420Z,4.67
2017-01-03T06:07:23.956Z,4.72
2017-01-03T06:08:04.442Z,4.67
2017-01-03T06:08:44.924Z,4.69
2017-01-03T06:09:25.420Z,4.66
2017-01-03T06:10:05.848Z,4.69
2017-01-03T06:10:46.377Z,4.62
2017-01-03T06:11:27.100Z,4.6
2017-01-03T06:12:07.609Z,4.7
2017-01-03T06:12:48.085Z,4.67
2017-01-03T06:13:28.504Z,4.69
2017-01-03T06:14:09.025Z,4.66
2017-01-03T06:14:49.578Z,4.51
2017-01-03T06:15:30.032Z,4.37
2017-01-03T06:16:10.531Z,4.41
2017-01-03T06:16:51.048Z,4.55
2017-01-03T06:17:31.506Z,4.66
2017-01-03T06:18:12.023Z,4.72
2017-01-03T06:18:52.456Z,4.75
2017-01-03T06:19:32.994Z,4.72
2017-01-03T06:20:13.482Z,4.77
2017-01-03T06:20:54.002Z,4.8
2017-01-03T06:21:34.487Z,4.75
2017-01-03T06:22:15.053Z,4.65
2017-01-03T06:22:55.547Z,4.85
2017-01-03T06:23:36.050Z,4.7
2017-01-03T06:24:16.564Z,4.67
2017-01-03T06:24:57.042Z,4.77
2017-01-03T06:25:37.607Z,4.75
2017-01-03T06:26:18.067Z,4.88
2017-01-03T06:26:58.521Z,4.89
2017-01-03T06:27:39.049Z,4.89
2017-01-03T06:28:19.549Z,4.97
2017-01-03T06:28:59.987Z,5.02
2017-01-03T06:29:40.466Z,4.96
2017-01-03T06:30:21.001Z,5.02
2017-01-03T06:31:01.505Z,4.65
2017-01-03T06:31:41.941Z,4.7
2017-01-03T06:32:22.427Z,4.91
2017-01-03T06:33:02.900Z,4.88
2017-01-03T06:33:43.406Z,4.92
2017-01-03T06:34:23.871Z,4.91
2017-01-03T06:35:04.390Z,4.89
2017-01-03T06:35:44.874Z,4.96
2017-01-03T06:36:25.400Z,4.99
2017-01-03T06:37:05.854Z,4.97
2017-01-03T06:37:46.309Z,4.94
2017-01-03T06:38:26.772Z,4.99
2017-01-03T06:39:07.271Z,4.91
2017-01-03T06:39:47.758Z,5
2017-01-03T06:40:28.318Z,4.97
2017-01-03T06:41:08.840Z,4.84
2017-01-03T06:41:49.263Z,4.67
2017-01-03T06:42:29.772Z,4.67
2017-01-03T06:43:10.299Z,4.66
2017-01-03T06:43:50.800Z,4.7
2017-01-03T06:44:31.304Z,4.75
2017-01-03T06:45:11.761Z,4.58
2017-01-03T06:45:52.263Z,4.77
2017-01-03T06:46:32.745Z,4.63
2017-01-03T06:47:13.321Z,4.59
2017-01-03T06:47:55.472Z,4.65
2017-01-03T06:48:36.028Z,4.6
2017-01-03T06:49:16.486Z,4.7
2017-01-03T06:49:56.976Z,4.84
2017-01-03T06:50:37.486Z,4.85
2017-01-03T06:51:18.002Z,4.77
2017-01-03T06:51:58.496Z,4.92
2017-01-03T06:52:39.174Z,5.03
2017-01-03T06:53:19.605Z,5.12
2017-01-03T06:54:00.239Z,5
2017-01-03T06:54:40.712Z,5.07
2017-01-03T06:55:21.190Z,4.8
2017-01-03T06:56:01.731Z,4.78
2017-01-03T06:56:42.248Z,4.8
2017-01-03T06:57:22.703Z,4.96
2017-01-03T06:58:03.182Z,5.02
2017-01-03T06:58:43.689Z,5.03
2017-01-03T06:59:24.193Z,5.25
2017-01-03T07:00:07.094Z,5.39
2017-01-03T07:00:47.577Z,5.3
2017-01-03T07:01:28.153Z,5.27
2017-01-03T07:02:08.619Z,5.35
2017-01-03T07:02:49.121Z,5.3
2017-01-03T07:03:29.688Z,5.72
2017-01-03T07:04:10.141Z,6.04
2017-01-03T07:04:50.645Z,6.12
2017-01-03T07:05:31.154Z,6.41
2017-01-03T07:06:11.635Z,6.52
2017-01-03T07:06:52.069Z,6.89
2017-01-03T07:07:32.616Z,7.09
2017-01-03T07:08:13.083Z,7.05
2017-01-03T07:08:53.584Z,7.27
2017-01-03T07:09:34.054Z,7.3
2017-01-03T07:10:14.577Z,6.62
2017-01-03T07:10:55.055Z,6.51
2017-01-03T07:11:35.646Z,6.25
2017-01-03T07:12:16.051Z,6.19
2017-01-03T07:12:56.547Z,6.22
2017-01-03T07:13:37.016Z,5.99
2017-01-03T07:14:17.552Z,6.22
2017-01-03T07:14:57.982Z,6.25
2017-01-03T07:15:38.477Z,6.88
2017-01-03T07:16:18.979Z,7.55
2017-01-03T07:16:59.464Z,7.3
2017-01-03T07:17:40.226Z,7.45
2017-01-03T07:18:20.712Z,7.6
2017-01-03T07:19:01.156Z,7.31
2017-01-03T07:19:41.615Z,7.42
2017-01-03T07:20:22.146Z,6.87
2017-01-03T07:21:02.596Z,7.1
2017-01-03T07:21:43.087Z,7.17
2017-01-03T07:22:23.549Z,7.3
2017-01-03T07:23:04.054Z,7.45
2017-01-03T07:23:44.521Z,7.42
2017-01-03T07:24:25.004Z,6.99
2017-01-03T07:25:05.493Z,6.71
2017-01-03T07:25:45.978Z,6.77
2017-01-03T07:26:26.441Z,6.8
2017-01-03T07:27:06.938Z,6.76
2017-01-03T07:27:47.413Z,6.88
2017-01-03T07:28:27.885Z,6.77
2017-01-03T07:29:08.341Z,6.76
2017-01-03T07:29:48.828Z,6.59
2017-01-03T07:30:29.344Z,6.59
2017-01-03T07:31:09.840Z,6.4
2017-01-03T07:31:50.346Z,6.66
2017-01-03T07:32:30.873Z,6.84
2017-01-03T07:33:11.393Z,6.99
2017-01-03T07:33:51.878Z,7.1
2017-01-03T07:34:32.371Z,7.24
2017-01-03T07:35:12.931Z,6.94
2017-01-03T07:35:53.410Z,6.87
2017-01-03T07:36:33.930Z,6.64
2017-01-03T07:37:14.406Z,6.61
2017-01-03T07:37:54.988Z,6.43
2017-01-03T07:38:35.446Z,6.62
2017-01-03T07:39:15.996Z,6.76
2017-01-03T07:39:56.495Z,6.79
2017-01-03T07:40:37.015Z,6.88
2017-01-03T07:41:17.486Z,6.56
2017-01-03T07:41:57.945Z,6.66
2017-01-03T07:42:38.581Z,6.56
2017-01-03T07:43:19.185Z,6.69
2017-01-03T07:43:59.690Z,6.54
2017-01-03T07:44:40.128Z,6.84
2017-01-03T07:45:20.703Z,7.05
2017-01-03T07:46:01.214Z,6.89
2017-01-03T07:46:41.655Z,7.12
2017-01-03T07:47:22.759Z,7.05
2017-01-03T07:48:21.401Z,7.25
2017-01-03T07:49:03.904Z,7.15
2017-01-03T07:50:44.475Z,7.2
2017-01-03T07:52:39.754Z,6.76
2017-01-03T07:53:21.383Z,6.76
2017-01-03T07:54:01.891Z,6.88
2017-01-03T07:54:42.406Z,6.95
2017-01-03T07:55:22.943Z,6.99
2017-01-03T07:56:03.435Z,6.71
2017-01-03T07:56:43.886Z,6.56
2017-01-03T07:57:24.400Z,6.59
2017-01-03T07:58:04.934Z,6.81
2017-01-03T07:58:45.416Z,7.15
2017-01-03T07:59:25.869Z,7.49
2017-01-03T08:00:06.336Z,7.48
2017-01-03T08:00:47.020Z,7.42
2017-01-03T08:01:27.539Z,7.53
2017-01-03T08:02:08.003Z,7.45
2017-01-03T08:02:48.500Z,7.32
2017-01-03T08:03:28.991Z,7.42
2017-01-03T08:04:09.451Z,7.4
2017-01-03T08:04:49.945Z,7.5
2017-01-03T08:05:30.504Z,7.23
2017-01-03T08:06:11.050Z,7.21
2017-01-03T08:06:51.524Z,7.23
2017-01-03T08:07:31.983Z,7.2
2017-01-03T08:08:12.567Z,7.15
2017-01-03T08:08:53.046Z,7.32
2017-01-03T08:09:33.699Z,7.28
2017-01-03T08:10:14.017Z,7.2
2017-01-03T08:10:54.459Z,7.32
2017-01-03T08:11:34.995Z,7.12
2017-01-03T08:12:15.541Z,7.13
2017-01-03T08:12:55.978Z,7.16
2017-01-03T08:13:36.458Z,7.03
2017-01-03T08:14:16.974Z,7.09
2017-01-03T08:14:57.492Z,7.03
2017-01-03T08:15:37.977Z,6.73
2017-01-03T08:16:18.443Z,6.79
2017-01-03T08:16:58.900Z,6.98
2017-01-03T08:17:39.393Z,6.84
2017-01-03T08:18:19.863Z,7.05
2017-01-03T08:19:00.393Z,6.85
2017-01-03T08:19:41.012Z,6.85
2017-01-03T08:20:21.616Z,6.7
2017-01-03T08:21:02.431Z,6.43
2017-01-03T08:21:43.512Z,6.44
2017-01-03T08:22:23.962Z,6.61
2017-01-03T08:23:04.433Z,6.67
2017-01-03T08:23:45.917Z,6.81
2017-01-03T08:24:26.622Z,6.92
2017-01-03T08:25:07.161Z,6.89
2017-01-03T08:25:47.737Z,6.87
2017-01-03T08:26:28.230Z,6.95
2017-01-03T08:27:08.677Z,6.89
2017-01-03T08:27:49.357Z,6.94
2017-01-03T08:28:29.876Z,7.05
2017-01-03T08:29:10.327Z,7.15
2017-01-03T08:29:50.971Z,6.95
2017-01-03T08:30:34.380Z,7.13
2017-01-03T08:31:14.886Z,7.06
2017-01-03T08:31:55.371Z,7.3
2017-01-03T08:32:35.881Z,7.53
2017-01-03T08:33:16.316Z,7.5
2017-01-03T08:33:56.809Z,7.13
2017-01-03T08:34:37.327Z,7.07
2017-01-03T08:35:17.817Z,7.13
2017-01-03T08:35:58.311Z,7.43
2017-01-03T08:36:38.773Z,7.42
2017-01-03T08:37:19.336Z,7.34
2017-01-03T08:37:59.734Z,7.02
2017-01-03T08:38:40.174Z,7.24
2017-01-03T08:39:20.679Z,7.13
2017-01-03T08:40:01.195Z,7.43
2017-01-03T08:40:41.687Z,7.31
2017-01-03T08:41:22.164Z,7.27
2017-01-03T08:42:02.705Z,7.39
2017-01-03T08:42:43.175Z,7.27
2017-01-03T08:43:23.708Z,7.31
2017-01-03T08:44:04.154Z,7.28
2017-01-03T08:44:44.617Z,7.3
2017-01-03T08:45:25.148Z,7.34
2017-01-03T08:46:05.665Z,7.02
2017-01-03T08:46:46.109Z,7.25
2017-01-03T08:47:26.642Z,7.17
2017-01-03T08:48:07.152Z,7.2
2017-01-03T08:48:47.816Z,7.3
2017-01-03T08:49:28.240Z,7.4
2017-01-03T08:50:08.716Z,7.39
2017-01-03T08:50:49.245Z,7.43
2017-01-03T08:51:29.751Z,7.58
2017-01-03T08:52:10.228Z,7.52
2017-01-03T08:52:50.745Z,7.53
2017-01-03T08:53:31.239Z,7.64
2017-01-03T08:54:11.692Z,7.72
2017-01-03T08:54:52.194Z,7.64
2017-01-03T08:55:32.768Z,7.64
2017-01-03T08:56:13.157Z,7.55
2017-01-03T08:56:53.695Z,7.53
2017-01-03T08:57:34.134Z,7.37
2017-01-03T08:58:14.629Z,7.49
2017-01-03T08:58:55.091Z,7.39
2017-01-03T08:59:35.649Z,7.25
2017-01-03T09:00:16.134Z,7.2
2017-01-03T09:00:56.646Z,7.17
2017-01-03T09:01:37.167Z,7.27
2017-01-03T09:02:17.667Z,7.02
2017-01-03T09:02:58.186Z,7.05
2017-01-03T09:03:38.669Z,6.98
2017-01-03T09:04:19.170Z,7.23
2017-01-03T09:04:59.644Z,7.43
2017-01-03T09:05:40.125Z,7.61
2017-01-03T09:06:20.686Z,7.69
2017-01-03T09:07:01.182Z,7.61
2017-01-03T09:07:41.676Z,7.82
2017-01-03T09:08:22.197Z,7.87